Time;durP1;ratioP1;P1;durP2;ratioP2;P2;SDS_P1;SDS_P2;PMS_P1;PMS_P2;Temp;Humidity;BMP_temperature;BMP_pressure;BME280_temperature;BME280_humidity;BME280_pressure;Samples;Min_cycle;Max_cycle;Signal;HPM_P1;HPM_P2
2024/04/16 00:02:06;;;;;;;1.60;0.90;;;20.80;62.20;;;;;;5349452;26;20485;-91
2024/04/16 00:04:32;;;;;;;2.03;0.90;;;20.80;62.20;;;;;;5350139;26;20445;-91
2024/04/16 00:07:00;;;;;;;1.50;0.80;;;20.80;62.10;;;;;;5349719;26;20902;-92
2024/04/16 00:09:29;;;;;;;1.90;1.03;;;20.70;62.10;;;;;;5351146;26;20227;-92
2024/04/16 00:11:57;;;;;;;1.50;0.80;;;20.70;62.10;;;;;;5351444;26;20520;-92
2024/04/16 00:14:23;;;;;;;1.70;0.93;;;20.80;62.20;;;;;;5351017;26;20453;-91
2024/04/16 00:16:54;;;;;;;1.60;0.80;;;20.70;62.10;;;;;;5349472;26;20457;-92
2024/04/16 00:19:20;;;;;;;1.60;0.80;;;20.70;62.10;;;;;;5349369;26;20464;-92
2024/04/16 00:21:49;;;;;;;1.60;0.80;;;20.70;62.10;;;;;;5349175;26;20563;-92
2024/04/16 00:24:15;;;;;;;1.50;0.80;;;20.70;62.10;;;;;;5348884;26;20844;-92
2024/04/16 00:26:43;;;;;;;1.60;0.87;;;20.70;62.10;;;;;;5348862;26;20498;-92
2024/04/16 00:29:09;;;;;;;2.13;0.90;;;20.70;62.10;;;;;;5349182;26;20706;-91
2024/04/16 00:31:38;;;;;;;1.70;0.80;;;20.70;62.10;;;;;;5349033;26;20558;-91
2024/04/16 00:34:07;;;;;;;2.77;1.00;;;20.70;62.10;;;;;;5349765;26;20686;-91
2024/04/16 00:36:36;;;;;;;1.70;0.90;;;20.70;62.10;;;;;;5349874;26;20507;-92
2024/04/16 00:39:02;;;;;;;2.17;1.00;;;20.70;62.10;;;;;;5354825;26;20509;-91
2024/04/16 00:41:33;;;;;;;1.60;0.90;;;20.70;62.10;;;;;;5348122;26;20458;-91
2024/04/16 00:43:59;;;;;;;1.70;0.80;;;20.70;62.10;;;;;;5348939;26;20500;-92
2024/04/16 00:46:28;;;;;;;1.70;0.90;;;20.70;62.10;;;;;;5349219;26;20461;-91
2024/04/16 00:48:54;;;;;;;1.50;0.80;;;20.70;62.10;;;;;;5350040;26;20452;-91
2024/04/16 00:51:25;;;;;;;1.80;1.10;;;20.70;62.10;;;;;;5348734;26;20462;-91
2024/04/16 00:53:51;;;;;;;1.47;0.83;;;20.70;62.10;;;;;;5320634;26;20454;-92
2024/04/16 00:56:20;;;;;;;1.50;0.73;;;20.70;62.10;;;;;;5351309;26;20446;-92
2024/04/16 00:58:47;;;;;;;3.30;1.13;;;20.70;62.10;;;;;;5320463;26;20449;-91
2024/04/16 01:01:17;;;;;;;1.63;0.80;;;20.70;63.00;;;;;;5350406;26;20488;-93
2024/04/16 01:03:43;;;;;;;1.60;0.93;;;20.70;62.10;;;;;;5350096;26;20479;-92
2024/04/16 01:06:13;;;;;;;1.87;0.90;;;20.70;62.10;;;;;;5356685;26;20426;-91
2024/04/16 01:08:42;;;;;;;1.67;0.80;;;20.80;62.20;;;;;;5370910;26;20514;-92
2024/04/16 01:11:10;;;;;;;1.50;0.80;;;20.70;62.10;;;;;;5365985;26;20780;-90
2024/04/16 01:13:37;;;;;;;1.50;0.93;;;20.70;62.10;;;;;;5350614;26;20445;-91
2024/04/16 01:16:09;;;;;;;1.50;0.80;;;20.70;62.10;;;;;;5352788;26;20453;-89
2024/04/16 01:21:50;;;;;;;1.60;0.80;;;20.70;62.10;;;;;;5335673;26;20586;-92
2024/04/16 01:24:21;;;;;;;1.60;0.90;;;20.70;62.10;;;;;;5350014;26;20492;-92
2024/04/16 01:26:49;;;;;;;2.70;1.10;;;20.70;62.10;;;;;;5318973;26;20781;-93
2024/04/16 01:29:15;;;;;;;2.20;0.90;;;20.70;62.10;;;;;;5350046;26;20774;-91
2024/04/16 01:31:44;;;;;;;1.60;0.90;;;20.70;62.10;;;;;;5348626;26;20495;-92
2024/04/16 01:34:10;;;;;;;1.70;0.80;;;20.70;62.10;;;;;;5354915;26;20441;-91
2024/04/16 01:36:38;;;;;;;1.53;0.90;;;20.70;62.10;;;;;;5348366;26;20960;-91
2024/04/16 01:39:04;;;;;;;1.50;1.00;;;20.60;61.90;;;;;;5348377;26;20493;-91
2024/04/16 01:41:35;;;;;;;1.80;0.80;;;20.70;62.10;;;;;;5347725;26;20473;-91
2024/04/16 01:44:02;;;;;;;2.30;0.93;;;20.70;62.10;;;;;;5347489;26;20449;-91
2024/04/16 01:46:31;;;;;;;1.60;0.80;;;20.70;62.10;;;;;;5348098;26;20860;-91
2024/04/16 01:48:57;;;;;;;2.20;1.10;;;20.70;62.10;;;;;;5347424;26;20473;-91
2024/04/16 01:51:25;;;;;;;1.70;1.00;;;20.70;62.10;;;;;;5349135;26;20574;-90
2024/04/16 01:53:51;;;;;;;1.80;1.00;;;20.70;62.00;;;;;;5350484;26;20219;-90
2024/04/16 01:56:19;;;;;;;1.60;0.80;;;20.60;61.90;;;;;;5352526;26;20449;-90
2024/04/16 01:58:48;;;;;;;2.27;1.00;;;20.70;62.00;;;;;;5352577;26;20613;-91
2024/04/16 02:01:18;;;;;;;1.50;0.80;;;20.80;62.10;;;;;;5354466;26;20493;-87
2024/04/16 02:03:43;;;;;;;1.43;0.77;;;20.70;62.00;;;;;;5352691;26;20436;-91
2024/04/16 02:06:12;;;;;;;1.60;0.93;;;20.60;61.90;;;;;;5350611;26;20452;-90
2024/04/16 02:08:38;;;;;;;1.93;0.93;;;20.60;61.90;;;;;;5351232;26;20452;-92
2024/04/16 02:11:06;;;;;;;1.50;0.80;;;20.60;61.90;;;;;;5351090;26;20468;-92
2024/04/16 02:13:33;;;;;;;1.80;1.00;;;20.60;61.90;;;;;;5350902;26;20352;-91
2024/04/16 02:16:08;;;;;;;1.50;0.90;;;20.60;61.90;;;;;;5350832;26;20452;-90
2024/04/16 02:18:34;;;;;;;2.27;0.87;;;20.70;62.00;;;;;;5352344;26;20495;-90
2024/04/16 02:21:03;;;;;;;1.80;1.07;;;20.60;61.80;;;;;;5350701;26;20457;-90
2024/04/16 02:23:29;;;;;;;1.60;0.80;;;20.60;61.90;;;;;;5351057;26;20488;-90
2024/04/16 02:25:58;;;;;;;2.10;1.00;;;20.60;61.90;;;;;;5350599;26;20940;-91
2024/04/16 02:28:23;;;;;;;1.67;0.90;;;20.60;61.90;;;;;;5350802;26;20219;-90
2024/04/16 02:30:52;;;;;;;1.40;0.73;;;20.60;61.90;;;;;;5350104;26;20457;-91
2024/04/16 02:33:21;;;;;;;1.60;0.80;;;20.60;61.90;;;;;;5350344;26;20223;-91
2024/04/16 02:35:49;;;;;;;1.50;0.80;;;20.60;61.90;;;;;;5368900;26;20525;-90
2024/04/16 02:38:15;;;;;;;1.80;1.00;;;20.60;61.90;;;;;;5373185;26;20437;-90
2024/04/16 02:40:45;;;;;;;2.10;1.20;;;20.60;61.90;;;;;;5354379;26;20457;-91
2024/04/16 02:43:11;;;;;;;2.73;0.90;;;20.60;61.80;;;;;;5350216;26;20444;-91
2024/04/16 02:45:41;;;;;;;1.80;0.80;;;20.60;61.90;;;;;;5350629;26;20964;-91
2024/04/16 02:48:07;;;;;;;1.73;0.90;;;20.60;61.90;;;;;;5351730;26;20457;-91
2024/04/16 02:50:38;;;;;;;1.70;0.90;;;20.60;61.80;;;;;;5349768;26;20590;-91
2024/04/16 02:53:04;;;;;;;2.83;1.00;;;20.70;61.90;;;;;;5350637;26;20219;-91
2024/04/16 02:55:33;;;;;;;1.77;1.10;;;20.60;61.80;;;;;;5349980;26;20491;-91
2024/04/16 02:57:58;;;;;;;2.60;0.90;;;20.60;61.80;;;;;;5350052;26;20788;-91
2024/04/16 03:00:27;;;;;;;1.70;0.90;;;20.60;61.80;;;;;;5350348;26;20501;-91
2024/04/16 03:02:53;;;;;;;1.70;1.00;;;20.60;61.80;;;;;;5348591;26;20769;-91
2024/04/16 03:05:21;;;;;;;1.70;0.80;;;20.60;61.80;;;;;;5350020;26;20495;-91
2024/04/16 03:07:52;;;;;;;1.80;0.90;;;20.60;61.80;;;;;;5350244;26;20226;-90
2024/04/16 03:10:49;;;;;;;1.70;1.00;;;20.60;62.70;;;;;;5359423;26;20465;-91
2024/04/16 03:13:15;;;;;;;2.33;0.90;;;20.60;61.80;;;;;;5349957;26;20461;-92
2024/04/16 03:15:43;;;;;;;3.00;0.93;;;20.60;61.80;;;;;;5349965;26;20441;-91
2024/04/16 03:18:18;;;;;;;1.50;0.70;;;20.60;61.80;;;;;;5354156;26;20262;-91
2024/04/16 03:20:47;;;;;;;1.50;0.80;;;20.60;61.80;;;;;;5350032;26;20469;-91
2024/04/16 03:23:16;;;;;;;2.00;1.00;;;20.60;61.80;;;;;;5349694;26;20956;-91
2024/04/16 03:25:45;;;;;;;1.93;0.80;;;20.60;61.80;;;;;;5349550;26;20488;-91
2024/04/16 03:28:11;;;;;;;1.60;0.90;;;20.60;61.80;;;;;;5349776;26;20441;-90
2024/04/16 03:30:39;;;;;;;2.00;1.00;;;20.70;61.90;;;;;;5350136;26;20449;-90
2024/04/16 03:33:05;;;;;;;1.40;0.70;;;20.60;61.80;;;;;;5349698;26;20215;-93
2024/04/16 03:35:34;;;;;;;2.07;0.80;;;20.60;62.60;;;;;;5350140;26;20498;-91
2024/04/16 03:38:02;;;;;;;1.83;0.83;;;20.60;61.80;;;;;;5350415;26;20265;-91
2024/04/16 03:40:34;;;;;;;1.60;0.87;;;20.60;61.80;;;;;;5349065;26;20514;-91
2024/04/16 03:43:04;;;;;;;2.80;0.80;;;20.60;61.70;;;;;;5320304;26;20458;-91
2024/04/16 03:45:30;;;;;;;1.77;0.90;;;20.60;61.70;;;;;;5350479;26;20449;-91
2024/04/16 03:47:59;;;;;;;1.70;0.87;;;20.60;61.70;;;;;;5349670;26;20503;-91
2024/04/16 03:50:25;;;;;;;1.43;0.70;;;20.60;61.70;;;;;;5349372;26;20231;-91
2024/04/16 03:52:54;;;;;;;2.17;1.13;;;20.60;61.70;;;;;;5349425;26;20513;-91
2024/04/16 03:55:20;;;;;;;2.43;0.80;;;20.60;61.70;;;;;;5349859;26;20500;-92
2024/04/16 03:57:51;;;;;;;1.80;0.90;;;20.60;61.70;;;;;;5352330;26;20445;-91
2024/04/16 04:03:04;;;;;;;1.67;0.90;;;20.60;61.70;;;;;;5352481;26;20525;-91
2024/04/16 04:05:30;;;;;;;1.70;0.90;;;20.60;61.80;;;;;;5351243;26;20494;-91
2024/04/16 04:07:59;;;;;;;1.50;0.73;;;20.60;61.80;;;;;;5368183;26;20437;-92
2024/04/16 04:10:24;;;;;;;1.50;0.80;;;20.60;61.80;;;;;;5371922;26;20461;-91
2024/04/16 04:12:56;;;;;;;2.10;1.00;;;20.60;61.70;;;;;;5355083;26;20499;-91
2024/04/16 04:15:22;;;;;;;1.40;0.70;;;20.60;61.80;;;;;;5349067;26;20257;-91
2024/04/16 04:17:50;;;;;;;2.03;0.93;;;20.60;61.70;;;;;;5348961;26;20496;-91
2024/04/16 04:20:16;;;;;;;2.03;0.93;;;20.60;61.70;;;;;;5349032;26;20441;-91
2024/04/16 04:22:44;;;;;;;1.53;0.80;;;20.60;61.70;;;;;;5349230;26;20782;-92
2024/04/16 04:25:10;;;;;;;1.60;0.90;;;20.60;61.70;;;;;;5349150;26;20214;-91
2024/04/16 04:27:41;;;;;;;1.50;0.80;;;20.70;61.80;;;;;;5349139;26;20498;-91
2024/04/16 04:30:10;;;;;;;1.97;0.80;;;20.60;61.70;;;;;;5348650;26;20206;-90
2024/04/16 04:32:39;;;;;;;1.50;0.90;;;20.60;61.70;;;;;;5349068;26;20441;-92
2024/04/16 04:35:06;;;;;;;1.60;0.80;;;20.60;61.70;;;;;;5349829;26;20453;-92
2024/04/16 04:37:35;;;;;;;1.70;1.00;;;20.60;61.70;;;;;;5351276;26;20453;-92
2024/04/16 04:40:01;;;;;;;1.60;0.80;;;20.50;61.60;;;;;;5348719;26;20469;-92
2024/04/16 04:42:29;;;;;;;1.90;0.93;;;20.60;61.70;;;;;;5349024;26;20509;-91
2024/04/16 04:44:55;;;;;;;1.43;0.70;;;20.50;61.60;;;;;;5348682;26;20249;-91
2024/04/16 04:47:26;;;;;;;1.63;0.90;;;20.60;61.70;;;;;;5348503;26;20465;-91
2024/04/16 04:49:53;;;;;;;2.07;0.83;;;20.60;61.70;;;;;;5352325;26;20488;-91
2024/04/16 04:52:22;;;;;;;1.70;0.80;;;20.60;61.70;;;;;;5349431;26;20449;-91
2024/04/16 04:54:47;;;;;;;1.70;0.90;;;20.60;61.70;;;;;;5348289;26;20541;-91
2024/04/16 04:57:16;;;;;;;1.80;0.90;;;20.60;61.70;;;;;;5348162;26;20453;-91
2024/04/16 04:59:42;;;;;;;1.70;0.80;;;20.60;61.70;;;;;;5348259;26;20222;-91
2024/04/16 05:02:11;;;;;;;2.53;1.00;;;20.50;61.60;;;;;;5348402;26;20492;-91
2024/04/16 05:04:39;;;;;;;1.60;0.80;;;20.50;61.60;;;;;;5348330;26;20537;-91
2024/04/16 05:07:08;;;;;;;1.57;0.97;;;20.60;61.70;;;;;;5348219;26;20551;-91
2024/04/16 05:09:34;;;;;;;1.70;0.93;;;20.60;61.70;;;;;;5348654;26;20493;-92
2024/04/16 05:12:02;;;;;;;1.57;0.87;;;20.60;61.70;;;;;;5348016;26;20457;-91
2024/04/16 05:14:28;;;;;;;1.80;0.80;;;20.50;61.60;;;;;;5348139;26;20226;-91
2024/04/16 05:16:57;;;;;;;2.13;0.90;;;20.60;61.70;;;;;;5348529;26;20771;-91
2024/04/16 05:19:23;;;;;;;1.73;1.10;;;20.60;61.70;;;;;;5348568;26;20230;-92
2024/04/16 05:21:54;;;;;;;2.60;0.80;;;20.60;61.70;;;;;;5348287;26;20501;-91
2024/04/16 05:24:20;;;;;;;2.20;0.83;;;20.60;61.70;;;;;;5348281;26;20845;-91
2024/04/16 05:26:48;;;;;;;1.60;0.90;;;20.60;61.70;;;;;;5347554;26;20506;-90
2024/04/16 05:29:14;;;;;;;1.87;1.00;;;20.50;61.60;;;;;;5347924;26;20218;-92
2024/04/16 05:31:42;;;;;;;1.50;0.80;;;20.60;61.70;;;;;;5347918;26;20487;-91
2024/04/16 05:34:08;;;;;;;1.40;0.70;;;20.60;61.70;;;;;;5349062;26;20313;-92
2024/04/16 05:36:38;;;;;;;1.70;1.00;;;20.60;61.70;;;;;;5370681;26;20492;-91
2024/04/16 05:39:08;;;;;;;1.43;0.80;;;20.60;61.70;;;;;;5368096;26;20312;-91
2024/04/16 05:41:37;;;;;;;1.83;0.70;;;20.60;61.70;;;;;;5347829;26;21017;-91
2024/04/16 05:44:03;;;;;;;1.87;1.00;;;20.50;61.60;;;;;;5347903;26;20461;-91
2024/04/16 05:46:43;;;;;;;2.40;0.90;;;20.60;61.70;;;;;;5347855;26;20503;-92
2024/04/16 05:49:09;;;;;;;2.23;0.90;;;20.60;61.70;;;;;;5348234;26;20559;-91
2024/04/16 05:51:37;;;;;;;1.70;1.00;;;20.60;61.70;;;;;;5347782;26;20457;-91
2024/04/16 05:54:06;;;;;;;1.80;0.90;;;20.60;61.70;;;;;;5347411;26;20311;-91
2024/04/16 05:56:35;;;;;;;1.50;0.80;;;20.50;62.40;;;;;;5347911;26;20449;-91
2024/04/16 05:59:00;;;;;;;1.83;1.00;;;20.60;61.70;;;;;;5348061;26;21045;-91
2024/04/16 06:01:29;;;;;;;1.70;1.00;;;20.60;61.70;;;;;;5349456;26;20463;-91
2024/04/16 06:03:57;;;;;;;2.07;1.00;;;20.60;61.70;;;;;;5348238;26;20230;-91
2024/04/16 06:06:24;;;;;;;2.57;0.90;;;20.60;61.70;;;;;;5348441;26;20449;-91
2024/04/16 06:08:53;;;;;;;1.70;0.90;;;20.60;61.70;;;;;;5348280;26;20493;-92
2024/04/16 06:11:21;;;;;;;2.20;0.93;;;20.50;61.50;;;;;;5347275;26;20529;-91
2024/04/16 06:13:50;;;;;;;1.70;0.80;;;20.50;61.50;;;;;;5347210;26;20944;-92
2024/04/16 06:16:16;;;;;;;2.27;1.17;;;20.60;61.70;;;;;;5347433;26;20449;-91
2024/04/16 06:18:45;;;;;;;1.70;0.90;;;20.50;61.50;;;;;;5347729;26;20457;-91
2024/04/16 06:21:11;;;;;;;1.50;0.73;;;20.60;61.60;;;;;;5346752;26;20510;-91
2024/04/16 06:23:40;;;;;;;1.60;0.90;;;20.60;61.60;;;;;;5347521;26;20967;-91
2024/04/16 06:26:07;;;;;;;1.50;0.80;;;20.50;61.50;;;;;;5347281;26;20249;-91
2024/04/16 06:28:38;;;;;;;1.83;0.90;;;20.60;61.70;;;;;;5346906;26;20493;-90
2024/04/16 06:31:04;;;;;;;2.00;1.07;;;20.60;61.60;;;;;;5347429;26;20464;-91
2024/04/16 06:33:36;;;;;;;1.60;0.90;;;20.60;61.60;;;;;;5346833;26;20495;-91
2024/04/16 06:36:02;;;;;;;1.70;0.90;;;20.60;61.60;;;;;;5346979;26;20491;-91
2024/04/16 06:38:30;;;;;;;1.57;0.83;;;20.60;61.60;;;;;;5349159;26;21011;-91
2024/04/16 06:40:56;;;;;;;2.17;0.80;;;20.60;61.60;;;;;;5350276;26;20468;-91
2024/04/16 06:43:25;;;;;;;2.33;0.90;;;20.50;61.50;;;;;;5350425;26;20493;-91
2024/04/16 06:45:55;;;;;;;2.00;1.00;;;20.60;61.60;;;;;;5350686;26;20495;-91
2024/04/16 06:48:24;;;;;;;1.73;0.87;;;20.50;61.50;;;;;;5350356;26;20449;-91
2024/04/16 06:50:51;;;;;;;1.40;0.70;;;20.50;61.50;;;;;;5350579;26;20449;-91
2024/04/16 06:53:19;;;;;;;1.80;0.80;;;20.50;61.50;;;;;;5350474;26;20448;-91
2024/04/16 06:55:45;;;;;;;2.23;0.80;;;20.50;61.50;;;;;;5350668;26;20564;-91
2024/04/16 06:58:14;;;;;;;1.70;1.00;;;20.50;61.50;;;;;;5360242;26;20971;-91
2024/04/16 07:00:40;;;;;;;1.50;0.90;;;20.50;61.50;;;;;;5357876;26;20562;-90
2024/04/16 07:03:11;;;;;;;1.70;0.83;;;20.50;61.50;;;;;;5360691;26;20460;-89
2024/04/16 07:05:36;;;;;;;1.43;0.80;;;20.50;61.50;;;;;;5358114;26;20215;-91
2024/04/16 07:08:05;;;;;;;1.40;0.80;;;20.50;61.50;;;;;;5370032;26;20437;-90
2024/04/16 07:10:31;;;;;;;1.60;0.80;;;20.50;61.50;;;;;;5372806;26;20464;-89
2024/04/16 07:13:00;;;;;;;1.80;0.90;;;20.50;61.40;;;;;;5354036;26;20457;-91
2024/04/16 07:15:25;;;;;;;2.40;0.90;;;20.50;61.40;;;;;;5350543;26;20222;-91
2024/04/16 07:17:54;;;;;;;1.50;0.83;;;20.60;61.60;;;;;;5351811;26;20543;-91
2024/04/16 07:20:22;;;;;;;1.50;0.90;;;20.50;61.50;;;;;;5349279;26;20709;-91
2024/04/16 07:22:51;;;;;;;1.63;0.90;;;20.50;61.50;;;;;;5349199;26;20496;-91
2024/04/16 07:25:18;;;;;;;1.97;0.80;;;20.50;61.40;;;;;;5349355;26;20997;-91
2024/04/16 07:27:46;;;;;;;2.70;0.90;;;20.50;61.40;;;;;;5349661;26;20461;-91
2024/04/16 07:30:13;;;;;;;1.93;0.90;;;20.50;61.40;;;;;;5349120;26;20516;-91
2024/04/16 07:32:41;;;;;;;1.73;0.90;;;20.50;61.50;;;;;;5349289;26;20441;-91
2024/04/16 07:35:07;;;;;;;1.50;0.80;;;20.50;61.50;;;;;;5349118;26;20449;-91
2024/04/16 07:37:38;;;;;;;2.37;0.90;;;20.50;61.40;;;;;;5349373;26;20453;-91
2024/04/16 07:40:05;;;;;;;1.47;0.80;;;20.50;61.40;;;;;;5348993;26;20615;-91
2024/04/16 07:42:34;;;;;;;1.77;1.10;;;20.50;61.40;;;;;;5349085;26;20457;-91
2024/04/16 07:45:00;;;;;;;1.73;0.90;;;20.50;61.40;;;;;;5349179;26;20454;-91
2024/04/16 07:47:28;;;;;;;2.00;1.20;;;20.50;61.40;;;;;;5349262;26;20504;-91
2024/04/16 07:49:54;;;;;;;1.60;0.90;;;20.50;61.40;;;;;;5348593;26;21016;-91
2024/04/16 07:52:23;;;;;;;2.50;0.90;;;20.60;61.60;;;;;;5348968;26;20445;-91
2024/04/16 07:54:51;;;;;;;1.87;1.10;;;20.50;61.50;;;;;;5348961;26;20253;-91
2024/04/16 07:57:20;;;;;;;1.80;0.90;;;20.50;61.50;;;;;;5348421;26;20514;-91
2024/04/16 07:59:46;;;;;;;1.40;0.70;;;20.50;61.50;;;;;;5348685;26;20956;-90
2024/04/16 08:02:15;;;;;;;1.60;0.80;;;20.50;61.50;;;;;;5348951;26;20502;-90
2024/04/16 08:04:43;;;;;;;1.80;0.90;;;20.50;61.50;;;;;;5348680;26;20495;-90
2024/04/16 08:07:11;;;;;;;1.50;0.80;;;20.50;61.50;;;;;;5348974;26;20511;-90
2024/04/16 08:09:37;;;;;;;1.60;0.90;;;20.50;61.50;;;;;;5348837;26;20461;-92
2024/04/16 08:12:10;;;;;;;1.97;1.00;;;20.50;61.50;;;;;;5348236;26;20454;-91
2024/04/16 08:14:35;;;;;;;1.50;0.70;;;20.50;61.50;;;;;;5348471;26;20453;-90
2024/04/16 08:17:04;;;;;;;1.70;0.90;;;20.60;61.60;;;;;;5348775;26;20449;-91
2024/04/16 08:19:32;;;;;;;1.70;0.80;;;20.50;61.50;;;;;;5348689;26;20449;-91
2024/04/16 08:21:58;;;;;;;1.53;0.80;;;20.50;61.50;;;;;;5348413;26;20461;-91
2024/04/16 08:24:27;;;;;;;1.40;0.80;;;20.50;61.50;;;;;;5348559;26;20968;-90
2024/04/16 08:26:53;;;;;;;1.47;0.80;;;20.50;61.50;;;;;;5348939;26;20569;-90
2024/04/16 08:29:24;;;;;;;1.50;0.80;;;20.50;61.50;;;;;;5348424;26;20457;-90
2024/04/16 08:31:50;;;;;;;1.87;0.80;;;20.50;61.50;;;;;;5348957;26;20445;-90
2024/04/16 08:34:18;;;;;;;1.77;0.90;;;20.50;61.40;;;;;;5348166;26;20453;-90
2024/04/16 08:36:44;;;;;;;2.37;0.90;;;20.50;61.50;;;;;;5364021;26;20281;-90
2024/04/16 08:39:12;;;;;;;1.80;0.90;;;20.50;61.40;;;;;;5370673;26;20457;-90
2024/04/16 08:41:38;;;;;;;1.80;0.90;;;20.50;61.40;;;;;;5353222;26;20227;-90
2024/04/16 08:44:09;;;;;;;1.47;0.80;;;20.50;61.50;;;;;;5348147;26;20503;-90
2024/04/16 08:46:38;;;;;;;1.50;0.80;;;20.50;61.50;;;;;;5348531;26;20323;-90
2024/04/16 08:49:09;;;;;;;1.90;0.90;;;20.50;61.50;;;;;;5348314;26;20504;-90
2024/04/16 08:51:36;;;;;;;1.60;0.80;;;20.50;61.50;;;;;;5347926;26;20461;-90
2024/04/16 08:54:06;;;;;;;2.20;0.90;;;20.50;61.50;;;;;;5347882;26;20461;-91
2024/04/16 08:56:35;;;;;;;1.50;0.90;;;20.50;61.50;;;;;;5348142;26;20509;-91
2024/04/16 08:59:04;;;;;;;1.50;0.90;;;20.50;61.50;;;;;;5348372;26;20509;-90
2024/04/16 09:01:32;;;;;;;2.20;0.90;;;20.50;61.50;;;;;;5346672;26;20532;-90
2024/04/16 09:04:04;;;;;;;1.60;0.80;;;20.50;61.50;;;;;;5347994;26;20963;-91
2024/04/16 09:06:31;;;;;;;1.80;1.00;;;20.60;61.60;;;;;;5347795;26;20964;-90
2024/04/16 09:09:01;;;;;;;1.47;0.70;;;20.50;61.50;;;;;;5347794;26;20461;-91
2024/04/16 09:11:28;;;;;;;1.50;0.80;;;20.50;61.50;;;;;;5347700;26;20596;-90
2024/04/16 09:13:58;;;;;;;1.60;0.70;;;20.50;61.50;;;;;;5347860;26;20512;-90
2024/04/16 09:16:23;;;;;;;1.90;1.00;;;20.60;61.60;;;;;;5347640;26;20445;-91
2024/04/16 09:18:53;;;;;;;1.70;0.70;;;20.50;61.40;;;;;;5347659;26;20506;-90
2024/04/16 09:21:21;;;;;;;1.50;0.70;;;20.50;61.40;;;;;;5347484;26;20226;-90
2024/04/16 09:23:59;;;;;;;2.50;1.03;;;20.50;61.40;;;;;;5347820;26;20563;-91
2024/04/16 09:26:24;;;;;;;2.10;0.93;;;20.50;61.40;;;;;;5347854;26;20555;-90
2024/04/16 09:28:53;;;;;;;1.80;0.90;;;20.50;61.40;;;;;;5348992;26;20477;-90
2024/04/16 09:31:19;;;;;;;1.60;0.90;;;20.50;61.50;;;;;;5347437;26;20222;-90
2024/04/16 09:33:47;;;;;;;1.53;0.83;;;20.50;61.50;;;;;;5347516;26;20498;-90
2024/04/16 09:36:15;;;;;;;1.40;0.73;;;20.60;61.60;;;;;;5347607;26;20491;-91
2024/04/16 09:38:48;;;;;;;1.63;0.70;;;20.50;61.50;;;;;;5347718;26;20445;-91
2024/04/16 09:41:14;;;;;;;1.80;0.90;;;20.60;61.60;;;;;;5347082;26;20464;-91
2024/04/16 09:43:44;;;;;;;1.60;0.80;;;20.50;61.50;;;;;;5347356;26;20457;-91
2024/04/16 09:46:11;;;;;;;1.90;0.90;;;20.50;61.50;;;;;;5347195;26;20461;-91
2024/04/16 09:48:41;;;;;;;1.90;0.80;;;20.60;61.60;;;;;;5347604;26;20437;-90
2024/04/16 09:51:08;;;;;;;1.87;0.80;;;20.60;61.60;;;;;;5347729;26;20583;-90
2024/04/16 09:53:39;;;;;;;2.70;0.83;;;20.50;61.50;;;;;;5347184;26;20442;-90
2024/04/16 09:56:09;;;;;;;1.63;0.90;;;20.60;61.60;;;;;;5347548;26;20557;-90
2024/04/16 09:58:39;;;;;;;1.60;0.80;;;20.60;61.60;;;;;;5347408;26;20456;-90
2024/04/16 10:01:05;;;;;;;1.40;0.70;;;20.60;61.90;;;;;;5347187;26;20555;-91
2024/04/16 10:03:34;;;;;;;1.40;0.70;;;20.60;61.60;;;;;;5347094;26;20457;-90
2024/04/16 10:06:00;;;;;;;1.50;0.70;;;20.60;61.60;;;;;;5350418;26;20448;-90
2024/04/16 10:08:29;;;;;;;1.60;0.97;;;20.60;61.60;;;;;;5370103;26;20536;-89
2024/04/16 10:10:57;;;;;;;1.57;0.90;;;20.60;61.60;;;;;;5367060;26;20507;-90
2024/04/16 10:13:32;;;;;;;1.70;0.83;;;20.60;61.60;;;;;;5350196;26;20444;-90
2024/04/16 10:15:58;;;;;;;1.60;0.90;;;20.50;61.50;;;;;;5350109;26;20432;-90
2024/04/16 10:18:28;;;;;;;2.17;1.00;;;20.50;61.50;;;;;;5350243;26;20879;-90
2024/04/16 10:20:57;;;;;;;1.60;0.90;;;20.60;61.70;;;;;;5350126;26;20456;-90
2024/04/16 10:23:26;;;;;;;1.83;0.87;;;20.60;61.70;;;;;;5350135;26;20453;-90
2024/04/16 10:25:52;;;;;;;1.80;0.83;;;20.50;61.50;;;;;;5350330;26;20835;-90
2024/04/16 10:28:25;;;;;;;1.80;0.90;;;20.50;61.60;;;;;;5349909;26;20477;-91
2024/04/16 10:31:01;;;;;;;1.80;0.90;;;20.60;61.70;;;;;;5350075;26;20496;-90
2024/04/16 10:33:30;;;;;;;1.60;0.77;;;20.50;61.60;;;;;;5349702;26;20503;-90
2024/04/16 10:35:56;;;;;;;1.70;0.70;;;20.50;61.60;;;;;;5349977;26;20469;-90
2024/04/16 10:38:26;;;;;;;1.60;0.80;;;20.50;61.70;;;;;;5349887;26;20566;-90
2024/04/16 10:40:55;;;;;;;1.53;0.70;;;20.50;61.60;;;;;;5349917;26;20784;-91
2024/04/16 10:43:24;;;;;;;1.40;0.70;;;20.50;61.70;;;;;;5349826;26;20449;-90
2024/04/16 10:45:51;;;;;;;1.50;0.87;;;20.50;61.70;;;;;;5349665;26;20512;-90
2024/04/16 10:48:24;;;;;;;1.70;0.93;;;20.50;62.60;;;;;;5349960;26;20445;-90
2024/04/16 10:50:50;;;;;;;1.70;0.80;;;20.50;61.70;;;;;;5349881;26;20543;-90
2024/04/16 10:53:22;;;;;;;1.83;0.80;;;20.50;61.70;;;;;;5349420;26;20507;-90
2024/04/16 10:55:49;;;;;;;1.60;0.80;;;20.50;61.70;;;;;;5349762;26;20470;-90
2024/04/16 10:58:18;;;;;;;1.67;0.83;;;20.50;61.80;;;;;;5349921;26;20445;-90
2024/04/16 11:00:44;;;;;;;1.40;0.70;;;20.50;62.60;;;;;;5349719;26;20499;-90
2024/04/16 11:03:13;;;;;;;1.40;0.70;;;20.50;61.70;;;;;;5349369;26;20461;-89
2024/04/16 11:05:41;;;;;;;1.70;0.87;;;20.50;61.70;;;;;;5349396;26;20453;-89
2024/04/16 11:08:10;;;;;;;1.67;1.00;;;20.50;61.80;;;;;;5349603;26;20560;-91
2024/04/16 11:10:36;;;;;;;1.60;0.90;;;20.50;61.80;;;;;;5349982;26;20461;-90
2024/04/16 11:13:05;;;;;;;1.90;0.80;;;20.50;61.80;;;;;;5349790;26;20449;-90
2024/04/16 11:15:33;;;;;;;2.43;1.00;;;20.50;61.80;;;;;;5349980;26;20457;-89
2024/04/16 11:18:01;;;;;;;1.60;0.80;;;20.50;61.80;;;;;;5349481;26;20457;-89
2024/04/16 11:20:27;;;;;;;1.60;0.83;;;20.50;61.80;;;;;;5349895;26;20453;-90
2024/04/16 11:23:00;;;;;;;2.07;0.90;;;20.50;61.90;;;;;;5349110;26;20449;-89
2024/04/16 11:25:30;;;;;;;1.90;0.83;;;20.50;61.80;;;;;;5349235;26;20505;-90
2024/04/16 11:27:58;;;;;;;1.80;0.73;;;20.50;61.80;;;;;;5349647;26;20900;-90
2024/04/16 11:30:25;;;;;;;1.60;0.80;;;20.60;62.00;;;;;;5349358;26;20448;-90
2024/04/16 11:32:54;;;;;;;1.40;0.70;;;20.50;61.90;;;;;;5349382;26;20511;-90
2024/04/16 11:35:21;;;;;;;1.83;1.00;;;20.50;61.90;;;;;;5366255;26;20437;-89
2024/04/16 11:37:49;;;;;;;1.60;0.90;;;20.50;61.90;;;;;;5371211;26;20537;-90
2024/04/16 11:40:18;;;;;;;1.60;0.90;;;20.50;61.90;;;;;;5353778;26;20476;-90
2024/04/16 11:42:47;;;;;;;1.60;0.87;;;20.60;62.00;;;;;;5349835;26;20948;-91
2024/04/16 11:45:13;;;;;;;2.13;0.90;;;20.50;61.90;;;;;;5349301;26;20855;-90
2024/04/16 11:47:42;;;;;;;1.50;0.80;;;20.50;61.90;;;;;;5349377;26;20441;-89
2024/04/16 11:50:10;;;;;;;1.60;0.80;;;20.50;62.70;;;;;;5349252;26;20493;-90
2024/04/16 11:52:38;;;;;;;1.80;0.90;;;20.50;62.70;;;;;;5349327;26;20457;-91
2024/04/16 11:55:05;;;;;;;1.50;0.77;;;20.50;61.90;;;;;;5349806;26;20781;-91
2024/04/16 11:57:36;;;;;;;1.50;0.70;;;20.50;61.90;;;;;;5349250;26;20511;-91
2024/04/16 12:00:02;;;;;;;1.50;0.70;;;20.50;61.90;;;;;;5359457;26;20448;-91
2024/04/16 12:02:31;;;;;;;1.50;0.90;;;20.50;61.90;;;;;;5360226;26;20499;-90
2024/04/16 12:04:57;;;;;;;1.70;0.90;;;20.60;62.10;;;;;;5356171;26;20505;-90
2024/04/16 12:07:26;;;;;;;1.50;0.70;;;20.60;62.10;;;;;;5358304;26;20457;-91
2024/04/16 12:09:52;;;;;;;1.60;0.80;;;20.50;62.00;;;;;;5348782;26;20239;-90
2024/04/16 12:12:20;;;;;;;1.60;0.90;;;20.50;62.00;;;;;;5348978;26;20457;-90
2024/04/16 12:14:49;;;;;;;1.77;0.90;;;20.60;62.00;;;;;;5348993;26;20293;-90
2024/04/16 12:17:17;;;;;;;1.80;0.80;;;20.60;62.20;;;;;;5349218;26;20464;-90
2024/04/16 12:19:43;;;;;;;1.50;0.80;;;20.50;62.00;;;;;;5348780;26;20477;-90
2024/04/16 12:22:11;;;;;;;1.60;0.83;;;20.50;62.00;;;;;;5349164;26;20500;-90
2024/04/16 12:24:37;;;;;;;1.60;0.80;;;20.50;62.20;;;;;;5348734;26;20505;-91
2024/04/16 12:27:06;;;;;;;1.60;0.70;;;20.50;62.20;;;;;;5348797;26;20449;-91
2024/04/16 12:29:32;;;;;;;1.60;0.87;;;20.50;62.10;;;;;;5349030;26;20449;-90
2024/04/16 12:32:03;;;;;;;1.80;1.03;;;20.60;62.30;;;;;;5348841;26;20975;-91
2024/04/16 12:34:29;;;;;;;1.50;0.80;;;20.60;62.20;;;;;;5349439;26;20217;-91
2024/04/16 12:36:57;;;;;;;2.00;0.77;;;20.50;62.20;;;;;;5348781;26;20465;-92
2024/04/16 12:39:23;;;;;;;1.70;0.70;;;20.50;62.20;;;;;;5348466;26;20230;-91
2024/04/16 12:41:52;;;;;;;1.50;0.80;;;20.60;62.50;;;;;;5348642;26;20522;-91
2024/04/16 12:44:19;;;;;;;1.70;0.80;;;20.60;62.30;;;;;;5348686;26;20577;-91
2024/04/16 12:46:47;;;;;;;1.60;0.73;;;20.60;62.40;;;;;;5349005;26;20441;-92
2024/04/16 12:49:16;;;;;;;1.40;0.70;;;20.60;63.30;;;;;;5348192;26;20496;-91
2024/04/16 12:51:44;;;;;;;1.40;0.60;;;20.60;62.40;;;;;;5348378;26;20457;-91
2024/04/16 12:54:13;;;;;;;1.77;1.07;;;20.60;62.40;;;;;;5348673;26;20494;-90
2024/04/16 12:56:38;;;;;;;1.50;0.80;;;20.60;62.50;;;;;;5348438;26;20562;-92
2024/04/16 12:59:07;;;;;;;1.50;0.63;;;20.50;62.40;;;;;;5348570;26;20461;-90